createdAt,value
2022-09-22T00:01:30.378Z,13.40
2022-09-22T00:04:01.561Z,13.37
2022-09-22T00:06:33.102Z,13.33
2022-09-22T00:09:03.122Z,13.32
2022-09-22T00:11:33.462Z,13.29
2022-09-22T00:14:04.176Z,13.26
2022-09-22T00:16:36.608Z,13.27
2022-09-22T00:19:06.858Z,13.24
2022-09-22T00:21:36.774Z,13.24
2022-09-22T00:24:08.066Z,13.24
2022-09-22T00:26:38.118Z,13.24
2022-09-22T00:29:08.138Z,13.23
2022-09-22T00:31:37.765Z,13.23
2022-09-22T00:34:06.462Z,13.23
2022-09-22T00:36:36.951Z,13.25
2022-09-22T00:39:05.063Z,13.23
2022-09-22T00:41:36.334Z,13.22
2022-09-22T00:44:30.227Z,13.20
2022-09-22T00:47:01.717Z,13.19
2022-09-22T00:49:38.143Z,13.18
2022-09-22T00:52:08.161Z,13.17
2022-09-22T00:54:36.638Z,13.15
2022-09-22T00:57:08.951Z,13.12
2022-09-22T00:59:38.360Z,13.11
2022-09-22T01:02:07.232Z,13.10
2022-09-22T01:04:35.442Z,13.08
2022-09-22T01:07:04.491Z,13.08
2022-09-22T01:09:34.569Z,13.06
2022-09-22T01:12:04.501Z,13.04
2022-09-22T01:14:47.625Z,13.02
2022-09-22T01:17:23.698Z,13.00
2022-09-22T01:20:16.987Z,12.95
2022-09-22T01:23:15.248Z,12.92
2022-09-22T01:26:06.234Z,12.87
2022-09-22T01:28:51.590Z,12.86
2022-09-22T01:31:26.399Z,12.85
2022-09-22T01:34:04.486Z,12.82
2022-09-22T01:36:38.966Z,12.82
2022-09-22T01:39:13.722Z,12.81
2022-09-22T01:41:51.966Z,12.79
2022-09-22T01:44:27.062Z,12.78
2022-09-22T01:47:01.493Z,12.76
2022-09-22T01:49:33.998Z,12.73
2022-09-22T01:52:08.089Z,12.71
2022-09-22T01:54:42.058Z,12.67
2022-09-22T01:57:18.221Z,12.69
2022-09-22T01:59:51.514Z,12.66
2022-09-22T02:02:26.147Z,12.64
2022-09-22T02:04:58.663Z,12.61
2022-09-22T02:07:31.091Z,12.58
2022-09-22T02:10:01.628Z,12.56
2022-09-22T02:12:30.062Z,12.53
2022-09-22T02:14:58.170Z,12.52
2022-09-22T02:17:30.595Z,12.56
2022-09-22T02:20:01.215Z,12.51
2022-09-22T02:22:30.074Z,12.49
2022-09-22T02:24:58.122Z,12.47
2022-09-22T02:27:35.615Z,12.47
2022-09-22T02:30:08.263Z,12.46
2022-09-22T02:32:40.558Z,12.43
2022-09-22T02:35:10.070Z,12.41
2022-09-22T02:37:41.208Z,12.38
2022-09-22T02:40:14.939Z,12.40
2022-09-22T02:42:46.675Z,12.37
2022-09-22T02:45:19.483Z,12.36
2022-09-22T02:47:52.810Z,12.33
2022-09-22T02:51:12.584Z,12.30
2022-09-22T02:53:59.633Z,12.27
2022-09-22T02:56:54.035Z,12.23
2022-09-22T02:59:31.166Z,12.20
2022-09-22T03:01:59.642Z,12.19
2022-09-22T03:04:30.001Z,12.19
2022-09-22T03:06:58.435Z,12.17
2022-09-22T03:09:26.820Z,12.15
2022-09-22T03:12:07.827Z,12.14
2022-09-22T03:14:36.277Z,12.11
2022-09-22T03:17:04.688Z,12.07
2022-09-22T03:19:48.268Z,12.06
2022-09-22T03:22:20.029Z,12.03
2022-09-22T03:24:51.760Z,12.00
2022-09-22T03:27:19.957Z,11.98
2022-09-22T03:29:48.119Z,11.97
2022-09-22T03:32:20.783Z,11.90
2022-09-22T03:34:59.011Z,11.87
2022-09-22T03:37:34.904Z,11.85
2022-09-22T03:40:03.894Z,11.85
2022-09-22T03:42:32.954Z,11.84
2022-09-22T03:45:01.155Z,11.82
2022-09-22T03:47:29.471Z,11.81
2022-09-22T03:49:59.402Z,11.82
2022-09-22T03:52:32.721Z,11.81
2022-09-22T03:55:03.037Z,11.77
2022-09-22T03:58:01.929Z,11.77
2022-09-22T04:00:48.166Z,11.75
2022-09-22T04:03:26.712Z,11.75
2022-09-22T04:06:10.151Z,11.74
2022-09-22T04:08:40.027Z,11.74
2022-09-22T04:11:09.114Z,11.74
2022-09-22T04:13:42.723Z,11.74
2022-09-22T04:19:45.626Z,11.75
2022-09-22T04:22:32.375Z,11.75
2022-09-22T04:25:13.681Z,11.77
2022-09-22T04:28:05.936Z,11.76
2022-09-22T04:31:34.940Z,11.74
2022-09-22T04:38:53.786Z,11.63
2022-09-22T05:02:20.613Z,11.45
2022-09-22T05:09:57.750Z,11.41
2022-09-22T05:13:04.031Z,11.42
2022-09-22T05:24:11.361Z,11.46
2022-09-22T05:30:36.484Z,11.44
2022-09-22T05:33:05.013Z,11.52
2022-09-22T05:35:36.898Z,11.49
2022-09-22T05:38:05.613Z,11.51
2022-09-22T05:40:34.007Z,11.54
2022-09-22T05:43:03.681Z,11.57
2022-09-22T05:45:32.029Z,11.59
2022-09-22T05:48:00.410Z,11.62
2022-09-22T05:50:28.835Z,11.64
2022-09-22T05:53:05.185Z,11.70
2022-09-22T05:55:33.974Z,11.73
2022-09-22T05:58:03.641Z,11.77
2022-09-22T06:00:32.573Z,11.82
2022-09-22T06:03:00.933Z,11.88
2022-09-22T06:05:29.266Z,11.93
2022-09-22T06:08:02.927Z,11.99
2022-09-22T06:10:32.835Z,12.04
2022-09-22T06:13:01.365Z,12.07
2022-09-22T06:15:33.822Z,12.16
2022-09-22T06:18:02.257Z,12.22
2022-09-22T06:20:30.574Z,12.30
2022-09-22T06:22:58.928Z,12.37
2022-09-22T06:25:28.292Z,12.44
2022-09-22T06:28:01.975Z,12.52
2022-09-22T06:30:32.107Z,12.63
2022-09-22T06:33:00.480Z,12.73
2022-09-22T06:35:31.239Z,12.82
2022-09-22T06:37:59.932Z,12.94
2022-09-22T06:40:28.928Z,13.07
2022-09-22T06:43:10.642Z,13.21
2022-09-22T06:45:40.753Z,13.35
2022-09-22T06:48:10.607Z,13.50
2022-09-22T06:50:41.222Z,13.65
2022-09-22T06:53:12.800Z,13.80
2022-09-22T06:55:44.093Z,13.97
2022-09-22T06:58:12.956Z,14.14
2022-09-22T07:00:43.862Z,14.30
2022-09-22T07:03:19.662Z,14.48
2022-09-22T07:05:56.605Z,14.68
2022-09-22T07:08:26.065Z,14.88
2022-09-22T07:10:59.529Z,15.10
2022-09-22T07:13:29.740Z,15.34
2022-09-22T07:16:02.918Z,15.69
2022-09-22T07:18:31.594Z,16.26
2022-09-22T07:21:04.289Z,17.13
2022-09-22T07:23:34.798Z,18.06
2022-09-22T07:26:04.826Z,18.97
2022-09-22T07:28:35.329Z,19.58
2022-09-22T07:31:06.976Z,19.91
2022-09-22T07:33:35.865Z,20.17
2022-09-22T07:36:09.050Z,20.36
2022-09-22T07:38:37.975Z,20.39
2022-09-22T07:41:07.850Z,20.66
2022-09-22T07:43:36.474Z,20.96
2022-09-22T07:46:06.552Z,21.23
2022-09-22T07:48:44.108Z,21.47
2022-09-22T07:51:18.434Z,21.63
2022-09-22T07:53:48.588Z,21.75
2022-09-22T07:56:18.451Z,21.94
2022-09-22T07:58:51.049Z,22.21
2022-09-22T08:01:22.652Z,22.32
2022-09-22T08:03:52.236Z,22.49
2022-09-22T08:06:23.760Z,22.69
2022-09-22T08:08:56.423Z,22.48
2022-09-22T08:11:26.300Z,22.18
2022-09-22T08:13:57.184Z,21.83
2022-09-22T08:16:29.745Z,21.65
2022-09-22T08:18:59.115Z,21.62
2022-09-22T08:21:31.027Z,21.64
2022-09-22T08:24:00.948Z,21.66
2022-09-22T08:26:29.406Z,21.67
2022-09-22T08:28:58.535Z,21.50
2022-09-22T08:31:28.758Z,21.45
2022-09-22T08:33:57.686Z,21.45
2022-09-22T08:36:28.190Z,21.55
2022-09-22T08:38:58.004Z,21.68
2022-09-22T08:41:38.279Z,21.77
2022-09-22T08:44:22.950Z,21.96
2022-09-22T08:46:56.027Z,22.20
2022-09-22T08:49:45.519Z,22.51
2022-09-22T08:52:20.857Z,22.98
2022-09-22T08:54:50.119Z,23.43
2022-09-22T08:57:35.637Z,23.85
2022-09-22T09:00:07.476Z,24.08
2022-09-22T09:02:46.127Z,24.41
2022-09-22T09:05:51.730Z,24.65
2022-09-22T09:08:54.943Z,24.60
2022-09-22T09:11:37.239Z,24.95
2022-09-22T09:14:19.033Z,25.49
2022-09-22T09:16:54.075Z,25.94
2022-09-22T09:19:33.454Z,26.39
2022-09-22T09:22:05.547Z,26.84
2022-09-22T09:27:29.447Z,26.78
2022-09-22T09:30:03.887Z,26.73
2022-09-22T09:32:43.356Z,26.71
2022-09-22T09:35:16.321Z,26.69
2022-09-22T09:37:47.327Z,26.75
2022-09-22T09:40:18.441Z,26.87
2022-09-22T09:42:51.502Z,27.12
2022-09-22T09:45:26.016Z,27.27
2022-09-22T09:48:12.934Z,27.54
2022-09-22T09:50:42.665Z,27.90
2022-09-22T09:53:26.249Z,28.04
2022-09-22T09:55:55.266Z,28.01
2022-09-22T09:58:37.347Z,28.01
2022-09-22T10:01:09.587Z,28.12
2022-09-22T10:03:47.001Z,28.47
2022-09-22T10:06:25.398Z,28.57
2022-09-22T10:08:54.046Z,28.59
2022-09-22T10:11:31.326Z,28.63
2022-09-22T10:14:00.078Z,28.72
2022-09-22T10:16:28.900Z,28.97
2022-09-22T10:19:22.492Z,29.34
2022-09-22T10:21:52.953Z,29.33
2022-09-22T10:24:30.655Z,28.94
2022-09-22T10:27:02.436Z,28.94
2022-09-22T10:29:33.649Z,29.27
2022-09-22T10:32:13.352Z,29.53
2022-09-22T10:37:15.626Z,29.65
2022-09-22T10:39:49.916Z,29.71
2022-09-22T10:42:33.535Z,29.73
2022-09-22T10:45:07.093Z,30.12
2022-09-22T10:47:49.224Z,30.21
2022-09-22T10:50:47.329Z,30.45
2022-09-22T10:53:33.556Z,30.80
2022-09-22T10:56:09.511Z,30.77
2022-09-22T10:59:16.863Z,29.91
2022-09-22T11:01:59.120Z,29.92
2022-09-22T11:04:47.479Z,30.32
2022-09-22T11:07:47.002Z,30.46
2022-09-22T11:10:42.371Z,29.29
2022-09-22T11:13:20.926Z,28.18
2022-09-22T11:16:11.934Z,28.01
2022-09-22T11:18:56.259Z,28.84
2022-09-22T11:21:38.101Z,29.65
2022-09-22T11:24:19.228Z,30.00
2022-09-22T11:26:51.534Z,30.24
2022-09-22T11:29:47.526Z,30.53
2022-09-22T11:32:34.283Z,30.67
2022-09-22T11:35:21.057Z,30.55
2022-09-22T11:38:03.280Z,30.72
2022-09-22T11:43:43.326Z,30.96
2022-09-22T11:46:21.935Z,31.14
2022-09-22T11:49:01.697Z,31.19
2022-09-22T11:52:11.740Z,31.28
2022-09-22T11:55:19.266Z,31.35
2022-09-22T11:57:52.639Z,31.70
2022-09-22T12:00:23.358Z,31.75
2022-09-22T12:03:01.918Z,30.86
2022-09-22T12:05:36.374Z,29.72
2022-09-22T12:08:08.837Z,29.15
2022-09-22T12:10:40.897Z,29.49
2022-09-22T12:13:13.438Z,29.95
2022-09-22T12:15:49.239Z,30.28
2022-09-22T12:18:22.739Z,30.83
2022-09-22T12:20:59.920Z,31.26
2022-09-22T12:23:51.294Z,31.53
2022-09-22T12:26:28.709Z,31.59
2022-09-22T12:28:58.753Z,31.42
2022-09-22T12:31:36.615Z,31.18
2022-09-22T12:34:07.117Z,31.01
2022-09-22T12:36:38.354Z,30.76
2022-09-22T12:39:17.208Z,30.57
2022-09-22T12:41:48.259Z,30.47
2022-09-22T12:44:21.138Z,30.53
2022-09-22T12:46:52.002Z,30.31
2022-09-22T12:49:22.997Z,30.12
2022-09-22T12:51:52.140Z,29.96
2022-09-22T12:54:47.663Z,29.53
2022-09-22T12:57:29.664Z,29.53
2022-09-22T13:00:08.645Z,29.66
2022-09-22T13:02:44.881Z,29.68
2022-09-22T13:05:46.434Z,29.63
2022-09-22T13:08:26.812Z,29.61
2022-09-22T13:11:00.690Z,29.64
2022-09-22T13:13:46.863Z,29.49
2022-09-22T13:16:36.558Z,29.45
2022-09-22T13:19:11.625Z,29.07
2022-09-22T13:21:40.338Z,28.75
2022-09-22T13:24:23.680Z,28.19
2022-09-22T13:27:05.096Z,27.47
2022-09-22T13:29:34.529Z,26.96
2022-09-22T13:32:18.699Z,26.52
2022-09-22T13:34:49.316Z,26.37
2022-09-22T13:37:22.602Z,26.45
2022-09-22T13:39:53.347Z,26.79
2022-09-22T13:42:32.498Z,27.21
2022-09-22T13:45:03.706Z,27.49
2022-09-22T13:47:32.552Z,27.64
2022-09-22T13:50:07.294Z,27.81
2022-09-22T13:52:39.051Z,28.03
2022-09-22T13:55:10.960Z,28.08
2022-09-22T13:57:39.815Z,28.02
2022-09-22T14:00:10.432Z,28.10
2022-09-22T14:02:45.936Z,28.14
2022-09-22T14:05:22.286Z,28.18
2022-09-22T14:08:10.883Z,28.02
2022-09-22T14:10:41.938Z,27.70
2022-09-22T14:13:37.027Z,27.70
2022-09-22T14:16:11.814Z,27.56
2022-09-22T14:18:44.734Z,27.65
2022-09-22T14:21:14.817Z,27.87
2022-09-22T14:23:48.595Z,27.89
2022-09-22T14:26:27.234Z,27.93
2022-09-22T14:28:59.154Z,27.80
2022-09-22T14:31:32.439Z,27.57
2022-09-22T14:34:02.309Z,27.44
2022-09-22T14:36:37.487Z,27.36
2022-09-22T14:39:09.932Z,27.17
2022-09-22T14:41:39.588Z,26.97
2022-09-22T14:44:35.437Z,26.87
2022-09-22T14:47:22.019Z,26.78
2022-09-22T14:49:50.327Z,26.63
2022-09-22T14:52:29.907Z,26.72
2022-09-22T14:55:03.131Z,26.79
2022-09-22T14:57:31.446Z,26.75
2022-09-22T15:00:18.756Z,26.73
2022-09-22T15:02:50.929Z,26.54
2022-09-22T15:05:29.587Z,26.46
2022-09-22T15:08:00.193Z,26.17
2022-09-22T15:10:30.138Z,26.07
2022-09-22T15:13:19.675Z,26.01
2022-09-22T15:15:49.435Z,26.08
2022-09-22T15:18:19.318Z,26.16
2022-09-22T15:20:50.131Z,26.17
2022-09-22T15:23:24.169Z,26.08
2022-09-22T15:25:53.419Z,26.07
2022-09-22T15:28:23.999Z,25.97
2022-09-22T15:30:53.569Z,25.93
2022-09-22T15:33:22.591Z,25.90
2022-09-22T15:35:54.752Z,25.80
2022-09-22T15:38:27.614Z,25.81
2022-09-22T15:40:57.504Z,25.78
2022-09-22T15:43:30.867Z,25.62
2022-09-22T15:46:02.114Z,25.60
2022-09-22T15:48:32.310Z,25.62
2022-09-22T15:51:04.842Z,25.63
2022-09-22T15:53:36.069Z,25.61
2022-09-22T15:56:06.946Z,25.57
2022-09-22T15:58:37.310Z,25.28
2022-09-22T16:01:07.958Z,25.12
2022-09-22T16:03:41.331Z,25.04
2022-09-22T16:06:13.378Z,24.94
2022-09-22T16:08:46.233Z,24.92
2022-09-22T16:11:16.575Z,24.85
2022-09-22T16:13:45.177Z,24.92
2022-09-22T16:16:13.738Z,24.90
2022-09-22T16:18:42.224Z,24.82
2022-09-22T16:21:20.006Z,24.65
2022-09-22T16:23:49.838Z,24.57
2022-09-22T16:26:18.314Z,24.46
2022-09-22T16:28:46.611Z,24.46
2022-09-22T16:31:15.742Z,24.51
2022-09-22T16:33:45.290Z,24.56
2022-09-22T16:36:13.574Z,24.57
2022-09-22T16:38:41.887Z,24.42
2022-09-22T16:41:20.975Z,24.19
2022-09-22T16:43:49.668Z,24.13
2022-09-22T16:46:30.566Z,24.03
2022-09-22T16:49:00.784Z,23.96
2022-09-22T16:51:29.648Z,23.83
2022-09-22T16:53:58.140Z,23.75
2022-09-22T16:56:29.501Z,23.69
2022-09-22T16:59:01.373Z,23.59
2022-09-22T17:01:31.248Z,23.49
2022-09-22T17:04:00.078Z,23.36
2022-09-22T17:06:28.452Z,23.21
2022-09-22T17:08:58.040Z,23.02
2022-09-22T17:11:30.715Z,22.82
2022-09-22T17:14:01.543Z,22.62
2022-09-22T17:16:31.443Z,22.44
2022-09-22T17:19:03.116Z,22.25
2022-09-22T17:21:34.573Z,22.07
2022-09-22T17:24:04.947Z,21.87
2022-09-22T17:26:37.194Z,21.69
2022-09-22T17:29:06.499Z,21.54
2022-09-22T17:31:36.373Z,21.39
2022-09-22T17:34:04.721Z,21.22
2022-09-22T17:36:33.705Z,21.09
2022-09-22T17:39:02.686Z,20.95
2022-09-22T17:41:32.962Z,20.81
2022-09-22T17:44:03.865Z,20.66
2022-09-22T17:46:34.123Z,20.55
2022-09-22T17:49:20.350Z,20.42
2022-09-22T17:52:07.204Z,20.29
2022-09-22T17:54:54.454Z,20.15
2022-09-22T17:57:24.522Z,20.03
2022-09-22T17:59:56.453Z,19.92
2022-09-22T18:02:27.050Z,19.81
2022-09-22T18:04:55.688Z,19.72
2022-09-22T18:07:25.102Z,19.65
2022-09-22T18:09:55.546Z,19.57
2022-09-22T18:12:25.651Z,19.51
2022-09-22T18:14:56.557Z,19.41
2022-09-22T18:17:27.844Z,19.32
2022-09-22T18:19:57.127Z,19.26
2022-09-22T18:22:26.737Z,19.17
2022-09-22T18:24:56.328Z,19.11
2022-09-22T18:27:27.984Z,19.03
2022-09-22T18:29:59.637Z,18.95
2022-09-22T18:32:29.224Z,18.89
2022-09-22T18:34:57.584Z,18.83
2022-09-22T18:37:26.992Z,18.77
2022-09-22T18:39:55.515Z,18.69
2022-09-22T18:42:27.616Z,18.64
2022-09-22T18:44:57.333Z,18.57
2022-09-22T18:47:25.661Z,18.52
2022-09-22T18:49:54.061Z,18.44
2022-09-22T18:52:24.522Z,18.34
2022-09-22T18:54:54.751Z,18.28
2022-09-22T18:57:25.649Z,18.25
2022-09-22T18:59:57.783Z,18.19
2022-09-22T19:02:27.749Z,18.13
2022-09-22T19:04:56.176Z,18.06
2022-09-22T19:07:42.428Z,18.00
2022-09-22T19:10:13.355Z,17.94
2022-09-22T19:12:42.714Z,17.91
2022-09-22T19:15:15.346Z,17.85
2022-09-22T19:17:47.057Z,17.80
2022-09-22T19:20:17.600Z,17.74
2022-09-22T19:22:46.940Z,17.70
2022-09-22T19:25:16.181Z,17.64
2022-09-22T19:27:44.618Z,17.59
2022-09-22T19:30:13.880Z,17.53
2022-09-22T19:32:42.410Z,17.49
2022-09-22T19:35:12.324Z,17.45
2022-09-22T19:37:41.339Z,17.39
2022-09-22T19:40:13.218Z,17.36
2022-09-22T19:42:41.578Z,17.32
2022-09-22T19:45:10.571Z,17.29
2022-09-22T19:47:39.548Z,17.24
2022-09-22T19:50:09.060Z,17.20
2022-09-22T19:52:39.083Z,17.16
2022-09-22T19:55:09.548Z,17.13
2022-09-22T19:57:41.370Z,17.08
2022-09-22T20:00:12.157Z,17.06
2022-09-22T20:02:40.441Z,17.02
2022-09-22T20:05:19.219Z,16.95
2022-09-22T20:07:49.276Z,16.92
2022-09-22T20:10:19.060Z,16.89
2022-09-22T20:12:47.651Z,16.87
2022-09-22T20:15:16.155Z,16.81
2022-09-22T20:17:46.282Z,16.77
2022-09-22T20:20:15.644Z,16.74
2022-09-22T20:22:44.511Z,16.70
2022-09-22T20:25:23.104Z,16.65
2022-09-22T20:27:51.472Z,16.63
2022-09-22T20:30:20.224Z,16.61
2022-09-22T20:32:48.892Z,16.57
2022-09-22T20:35:19.121Z,16.54
2022-09-22T20:37:47.435Z,16.51
2022-09-22T20:40:18.674Z,16.47
2022-09-22T20:42:49.030Z,16.43
2022-09-22T20:45:20.939Z,16.39
2022-09-22T20:47:49.256Z,16.33
2022-09-22T20:50:17.988Z,16.31
2022-09-22T20:52:47.991Z,16.27
2022-09-22T20:55:16.605Z,16.26
2022-09-22T20:57:44.952Z,16.22
2022-09-22T21:00:16.311Z,16.18
2022-09-22T21:02:44.976Z,16.14
2022-09-22T21:05:13.290Z,16.14
2022-09-22T21:07:41.628Z,16.11
2022-09-22T21:10:28.026Z,16.08
2022-09-22T21:12:56.584Z,16.06
2022-09-22T21:15:26.372Z,16.04
2022-09-22T21:17:54.692Z,16.02
2022-09-22T21:20:23.313Z,16.00
2022-09-22T21:22:52.850Z,16.01
2022-09-22T21:25:21.083Z,15.96
2022-09-22T21:27:49.421Z,15.96
2022-09-22T21:30:17.790Z,15.95
2022-09-22T21:32:48.035Z,15.92
2022-09-22T21:35:17.442Z,15.87
2022-09-22T21:37:45.919Z,15.85
2022-09-22T21:40:14.414Z,15.85
2022-09-22T21:42:42.855Z,15.83
2022-09-22T21:45:12.991Z,15.83
2022-09-22T21:47:41.466Z,15.82
2022-09-22T21:50:11.516Z,15.82
2022-09-22T21:52:39.808Z,15.80
2022-09-22T21:55:08.934Z,15.77
2022-09-22T21:57:37.186Z,15.78
2022-09-22T22:00:07.871Z,15.84
2022-09-22T22:02:53.944Z,15.86
2022-09-22T22:05:23.652Z,15.86
2022-09-22T22:07:52.005Z,15.84
2022-09-22T22:10:20.345Z,15.85
2022-09-22T22:12:48.652Z,15.82
2022-09-22T22:15:16.936Z,15.82
2022-09-22T22:17:45.290Z,15.80
2022-09-22T22:20:13.520Z,15.80
2022-09-22T22:22:43.209Z,15.78
2022-09-22T22:25:17.350Z,15.77
2022-09-22T22:27:45.981Z,15.78
2022-09-22T22:30:14.636Z,15.76
2022-09-22T22:32:43.373Z,15.76
2022-09-22T22:35:11.807Z,15.75
2022-09-22T22:37:40.203Z,15.75
2022-09-22T22:40:10.741Z,15.72
2022-09-22T22:42:39.060Z,15.73
2022-09-22T22:45:07.842Z,15.73
2022-09-22T22:47:36.135Z,15.71
2022-09-22T22:50:04.470Z,15.68
2022-09-22T22:52:32.797Z,15.68
2022-09-22T22:55:01.043Z,15.68
2022-09-22T22:57:30.755Z,15.66
2022-09-22T22:59:59.010Z,15.67
2022-09-22T23:02:27.314Z,15.66
2022-09-22T23:04:58.684Z,15.66
2022-09-22T23:07:27.663Z,15.65
2022-09-22T23:10:06.489Z,15.63
2022-09-22T23:12:40.124Z,15.62
2022-09-22T23:15:10.781Z,15.61
2022-09-22T23:17:39.549Z,15.60
2022-09-22T23:20:09.196Z,15.58
2022-09-22T23:22:37.524Z,15.57
2022-09-22T23:25:06.395Z,15.53
2022-09-22T23:27:36.093Z,15.51
2022-09-22T23:30:04.757Z,15.49
2022-09-22T23:32:33.229Z,15.48
2022-09-22T23:35:01.432Z,15.45
2022-09-22T23:37:29.738Z,15.44
2022-09-22T23:39:58.062Z,15.41
2022-09-22T23:42:26.384Z,15.40
2022-09-22T23:44:56.093Z,15.40
2022-09-22T23:47:24.532Z,15.40
2022-09-22T23:49:52.862Z,15.40
2022-09-22T23:52:22.544Z,15.37
2022-09-22T23:54:51.210Z,15.37
2022-09-22T23:57:19.474Z,15.36
2022-09-22T23:59:47.794Z,15.33
